Time;durP1;ratioP1;P1;durP2;ratioP2;P2;SDS_P1;SDS_P2;PMS_P1;PMS_P2;Temp;Humidity;BMP_temperature;BMP_pressure;BME280_temperature;BME280_humidity;BME280_pressure;Samples;Min_cycle;Max_cycle;Signal;HPM_P1;HPM_P2
2023/05/13 00:00:50;;;;;;;2.23;2.03;;;23.30;46.50;;;;;;5076500;28;20132;-57
2023/05/13 00:03:17;;;;;;;2.67;1.60;;;23.20;46.50;;;;;;5076853;28;20059;-57
2023/05/13 00:05:45;;;;;;;1.63;1.52;;;23.20;46.50;;;;;;5076552;28;20048;-57
2023/05/13 00:08:12;;;;;;;2.03;1.83;;;23.20;46.50;;;;;;5076430;28;20048;-57
2023/05/13 00:10:39;;;;;;;2.17;1.90;;;23.20;46.50;;;;;;5076751;28;20132;-57
2023/05/13 00:13:07;;;;;;;2.00;1.90;;;23.20;46.50;;;;;;5076733;28;20405;-58
2023/05/13 00:15:34;;;;;;;1.55;1.45;;;23.20;46.50;;;;;;5076216;28;20492;-57
2023/05/13 00:18:01;;;;;;;1.92;1.83;;;23.20;46.50;;;;;;5076433;28;20446;-58
2023/05/13 00:20:28;;;;;;;2.20;2.00;;;23.20;46.50;;;;;;5075119;28;20412;-57
2023/05/13 00:22:56;;;;;;;2.05;1.83;;;23.20;46.50;;;;;;5076555;28;20052;-57
2023/05/13 00:25:23;;;;;;;1.65;1.55;;;23.20;46.50;;;;;;5075702;28;20053;-57
2023/05/13 00:27:50;;;;;;;2.03;1.90;;;23.20;46.60;;;;;;5075838;28;20044;-57
2023/05/13 00:30:17;;;;;;;3.30;2.13;;;23.20;46.60;;;;;;5076069;28;20484;-58
2023/05/13 00:32:47;;;;;;;1.75;1.65;;;23.10;46.50;;;;;;5091725;28;20545;-58
2023/05/13 00:35:15;;;;;;;1.67;1.58;;;23.10;46.50;;;;;;5076097;28;20446;-57
2023/05/13 00:37:42;;;;;;;1.70;1.60;;;23.10;46.50;;;;;;5075691;28;20048;-57
2023/05/13 00:40:19;;;;;;;2.40;2.17;;;23.10;46.50;;;;;;5076320;28;20133;-58
2023/05/13 00:42:46;;;;;;;1.77;1.67;;;23.10;46.60;;;;;;5075167;28;20059;-57
2023/05/13 00:45:14;;;;;;;2.00;1.90;;;23.10;46.70;;;;;;5075837;28;20467;-57
2023/05/13 00:47:41;;;;;;;1.65;1.55;;;23.10;46.70;;;;;;5075859;28;20062;-57
2023/05/13 00:50:10;;;;;;;1.52;1.42;;;23.10;46.70;;;;;;5075880;28;20055;-57
2023/05/13 00:52:38;;;;;;;2.15;1.55;;;23.10;46.70;;;;;;5067059;28;20098;-57
2023/05/13 00:55:07;;;;;;;1.83;1.73;;;23.10;46.80;;;;;;5055808;28;20061;-58
2023/05/13 00:57:36;;;;;;;1.42;1.40;;;23.10;46.80;;;;;;5054928;28;20146;-58
2023/05/13 01:00:04;;;;;;;1.77;1.65;;;23.10;46.80;;;;;;5055537;28;20048;-58
2023/05/13 01:02:53;;;;;;;1.80;1.70;;;23.00;46.80;;;;;;5053638;28;20224;-57
2023/05/13 01:05:45;;;;;;;1.60;1.45;;;23.00;46.80;;;;;;5054721;28;20477;-57
2023/05/13 01:08:46;;;;;;;2.92;1.60;;;23.00;46.80;;;;;;5055333;28;20051;-59
2023/05/13 01:11:20;;;;;;;1.75;1.65;;;23.00;46.80;;;;;;5054623;28;20068;-57
2023/05/13 01:13:50;;;;;;;1.77;1.67;;;23.10;46.90;;;;;;5055358;28;20049;-57
2023/05/13 01:16:29;;;;;;;1.30;1.30;;;23.00;46.80;;;;;;5055142;28;20045;-57
2023/05/13 01:18:59;;;;;;;1.83;1.73;;;23.10;46.80;;;;;;5055179;28;20052;-57
2023/05/13 01:21:27;;;;;;;1.80;1.70;;;23.10;46.60;;;;;;5056225;28;20053;-57
2023/05/13 01:23:55;;;;;;;1.70;1.60;;;23.10;46.60;;;;;;5074914;28;20128;-57
2023/05/13 01:26:23;;;;;;;1.83;1.73;;;23.10;47.00;;;;;;5075074;28;20048;-57
2023/05/13 01:28:50;;;;;;;1.50;1.40;;;23.10;46.40;;;;;;5075221;28;20059;-57
2023/05/13 01:31:20;;;;;;;1.67;1.58;;;23.20;46.50;;;;;;5074497;28;20059;-57
2023/05/13 01:33:48;;;;;;;1.77;1.67;;;23.20;47.00;;;;;;5075359;28;20056;-57
2023/05/13 01:36:16;;;;;;;1.70;1.60;;;23.20;46.40;;;;;;5074852;28;20135;-57
2023/05/13 01:38:44;;;;;;;1.65;1.55;;;23.20;46.30;;;;;;5074998;28;20076;-57
2023/05/13 01:41:11;;;;;;;1.27;1.27;;;23.20;46.30;;;;;;5075096;28;20055;-57
2023/05/13 01:43:38;;;;;;;1.73;1.63;;;23.10;46.30;;;;;;5074555;28;20139;-57
2023/05/13 01:46:11;;;;;;;1.50;1.40;;;23.20;46.40;;;;;;5074632;28;20051;-57
2023/05/13 01:48:38;;;;;;;1.38;1.27;;;23.20;46.40;;;;;;5074737;28;20044;-58
2023/05/13 01:51:06;;;;;;;1.67;1.58;;;23.10;46.40;;;;;;5074479;28;20048;-57
2023/05/13 01:53:33;;;;;;;2.72;1.58;;;23.10;46.40;;;;;;5074752;28;20066;-57
2023/05/13 01:56:00;;;;;;;1.58;1.52;;;23.10;46.40;;;;;;5073601;28;20446;-57
2023/05/13 01:58:27;;;;;;;1.30;1.20;;;23.10;46.40;;;;;;5074579;28;20080;-57
2023/05/13 02:00:55;;;;;;;1.48;1.40;;;23.10;46.40;;;;;;5074591;28;20072;-57
2023/05/13 02:03:22;;;;;;;2.15;2.05;;;23.10;46.40;;;;;;5074423;28;20072;-58
2023/05/13 02:05:49;;;;;;;1.50;1.40;;;23.10;46.40;;;;;;5074194;28;20048;-57
2023/05/13 02:08:16;;;;;;;1.73;1.63;;;23.10;46.50;;;;;;5074590;28;20059;-57
2023/05/13 02:10:43;;;;;;;1.58;1.38;;;23.10;46.40;;;;;;5074564;28;20072;-57
2023/05/13 02:13:11;;;;;;;1.42;1.33;;;23.10;46.50;;;;;;5073983;28;20415;-57
2023/05/13 02:15:38;;;;;;;1.80;1.65;;;23.10;46.40;;;;;;5074270;28;20044;-57
2023/05/13 02:18:05;;;;;;;1.42;1.33;;;23.10;46.40;;;;;;5073902;28;20048;-57
2023/05/13 02:20:32;;;;;;;2.10;1.80;;;23.10;46.40;;;;;;5073834;28;20045;-57
2023/05/13 02:22:59;;;;;;;1.20;1.20;;;23.10;46.40;;;;;;5073682;28;20044;-57
2023/05/13 02:25:27;;;;;;;1.80;1.70;;;23.00;46.40;;;;;;5073843;28;20118;-57
2023/05/13 02:27:54;;;;;;;1.33;1.23;;;23.10;46.40;;;;;;5074062;28;20455;-57
2023/05/13 02:30:25;;;;;;;1.75;1.65;;;23.10;46.40;;;;;;5074069;28;20084;-57
2023/05/13 02:32:53;;;;;;;1.50;1.40;;;23.00;46.40;;;;;;5073859;28;20080;-57
2023/05/13 02:35:21;;;;;;;1.60;1.50;;;23.00;46.40;;;;;;5073262;28;20048;-57
2023/05/13 02:37:48;;;;;;;1.55;1.45;;;23.00;46.40;;;;;;5073813;28;20385;-57
2023/05/13 02:40:15;;;;;;;1.73;1.63;;;23.00;46.40;;;;;;5072695;28;20048;-57
2023/05/13 02:42:42;;;;;;;1.83;1.73;;;23.00;46.40;;;;;;5073681;28;20099;-57
2023/05/13 02:45:10;;;;;;;1.50;1.40;;;23.00;46.50;;;;;;5073529;28;20045;-57
2023/05/13 02:47:38;;;;;;;2.60;1.48;;;23.00;46.50;;;;;;5073825;28;20090;-57
2023/05/13 02:50:08;;;;;;;1.52;1.20;;;23.00;46.50;;;;;;5073451;28;20091;-57
2023/05/13 02:52:37;;;;;;;1.30;1.20;;;23.00;46.60;;;;;;5072195;28;20053;-57
2023/05/13 02:55:08;;;;;;;1.42;1.33;;;23.00;46.60;;;;;;5073801;28;20148;-57
2023/05/13 02:57:36;;;;;;;1.60;1.50;;;23.00;46.60;;;;;;5073321;28;20044;-57
2023/05/13 03:00:04;;;;;;;1.52;1.48;;;23.00;46.60;;;;;;5073337;28;20067;-57
2023/05/13 03:02:33;;;;;;;1.58;1.45;;;22.90;46.60;;;;;;5073300;28;20048;-58
2023/05/13 03:05:01;;;;;;;1.60;1.50;;;22.90;46.60;;;;;;5073262;28;20044;-57
2023/05/13 03:07:28;;;;;;;1.83;1.73;;;23.00;46.60;;;;;;5073691;28;20052;-57
2023/05/13 03:09:55;;;;;;;1.70;1.60;;;22.90;46.60;;;;;;5073320;28;20058;-57
2023/05/13 03:12:22;;;;;;;1.50;1.40;;;23.00;46.60;;;;;;5073537;28;20044;-57
2023/05/13 03:14:49;;;;;;;1.55;1.45;;;23.00;46.60;;;;;;5073461;28;20103;-57
2023/05/13 03:17:16;;;;;;;1.60;1.50;;;23.00;46.50;;;;;;5072609;28;20055;-57
2023/05/13 03:19:44;;;;;;;1.50;1.40;;;23.00;46.50;;;;;;5072851;28;20048;-57
2023/05/13 03:22:11;;;;;;;1.40;1.30;;;23.00;46.40;;;;;;5073388;28;20127;-57
2023/05/13 03:24:38;;;;;;;1.50;1.40;;;23.00;46.30;;;;;;5073113;28;20045;-57
2023/05/13 03:27:05;;;;;;;1.63;1.52;;;23.10;46.30;;;;;;5071708;28;20080;-57
2023/05/13 03:29:32;;;;;;;1.80;1.48;;;23.00;46.20;;;;;;5073012;28;20131;-57
2023/05/13 03:31:59;;;;;;;1.48;1.42;;;23.00;46.20;;;;;;5073064;28;20053;-57
2023/05/13 03:34:26;;;;;;;1.38;1.38;;;23.10;46.20;;;;;;5072971;28;20480;-57
2023/05/13 03:36:54;;;;;;;1.65;1.50;;;23.10;46.20;;;;;;5073244;28;20076;-57
2023/05/13 03:39:21;;;;;;;1.80;1.45;;;23.10;46.20;;;;;;5073048;28;20048;-57
2023/05/13 03:41:48;;;;;;;1.35;1.30;;;23.00;46.10;;;;;;5072697;28;20047;-58
2023/05/13 03:44:15;;;;;;;1.50;1.40;;;23.10;46.20;;;;;;5073114;28;20053;-57
2023/05/13 03:46:42;;;;;;;1.88;1.48;;;23.10;46.20;;;;;;5073310;28;20552;-57
2023/05/13 03:49:09;;;;;;;1.65;1.55;;;23.00;46.20;;;;;;5072778;28;20127;-57
2023/05/13 03:51:36;;;;;;;1.52;1.42;;;23.10;46.20;;;;;;5073135;28;20461;-57
2023/05/13 03:54:04;;;;;;;1.50;1.40;;;23.00;46.10;;;;;;5072679;28;20044;-57
2023/05/13 03:56:31;;;;;;;1.98;1.52;;;23.00;46.20;;;;;;5072942;28;20070;-57
2023/05/13 03:58:58;;;;;;;1.45;1.35;;;23.00;46.20;;;;;;5072421;28;20125;-57
2023/05/13 04:01:25;;;;;;;1.50;1.40;;;23.00;46.20;;;;;;5072631;28;20040;-57
2023/05/13 04:03:52;;;;;;;1.25;1.23;;;23.00;46.10;;;;;;5072829;28;20090;-58
2023/05/13 04:06:20;;;;;;;1.42;1.35;;;23.00;46.10;;;;;;5072705;28;20048;-58
2023/05/13 04:08:48;;;;;;;1.40;1.30;;;23.10;46.20;;;;;;5072717;28;20088;-57
2023/05/13 04:11:15;;;;;;;1.60;1.50;;;23.10;46.20;;;;;;5072634;28;20475;-59
2023/05/13 04:13:44;;;;;;;1.55;1.45;;;23.00;46.10;;;;;;5072619;28;20088;-58
2023/05/13 04:16:12;;;;;;;1.10;1.10;;;23.00;46.10;;;;;;5072570;28;20090;-60
2023/05/13 04:18:39;;;;;;;1.50;1.40;;;23.00;46.10;;;;;;5072800;28;20373;-57
2023/05/13 04:21:07;;;;;;;1.83;1.73;;;23.00;46.10;;;;;;5072352;28;20055;-57
2023/05/13 04:23:35;;;;;;;1.90;1.77;;;23.00;46.10;;;;;;5072926;28;20050;-57
2023/05/13 04:26:02;;;;;;;1.50;1.40;;;23.10;46.10;;;;;;5072431;28;20051;-57
2023/05/13 04:28:30;;;;;;;1.90;1.80;;;23.10;46.10;;;;;;5072513;28;20055;-60
2023/05/13 04:30:57;;;;;;;1.25;1.25;;;23.10;46.00;;;;;;5072820;28;20440;-57
2023/05/13 04:33:25;;;;;;;1.27;1.17;;;23.10;46.00;;;;;;5072405;28;20044;-57
2023/05/13 04:35:53;;;;;;;1.80;1.70;;;23.10;46.00;;;;;;5072442;28;20045;-60
2023/05/13 04:38:20;;;;;;;1.85;1.75;;;23.10;45.80;;;;;;5072480;28;20495;-58
2023/05/13 04:40:47;;;;;;;4.90;1.55;;;23.10;45.70;;;;;;5074624;28;20090;-57
2023/05/13 04:43:15;;;;;;;1.83;1.73;;;23.10;46.20;;;;;;5075444;28;20049;-57
2023/05/13 04:45:42;;;;;;;1.63;1.52;;;23.10;45.60;;;;;;5075711;28;20044;-61
2023/05/13 04:48:09;;;;;;;2.22;2.00;;;23.10;45.50;;;;;;5075833;28;20044;-57
2023/05/13 04:50:36;;;;;;;1.83;1.73;;;23.10;45.50;;;;;;5074771;28;20064;-62
2023/05/13 04:53:04;;;;;;;2.45;2.25;;;23.10;45.40;;;;;;5074844;28;20072;-58
2023/05/13 04:55:31;;;;;;;1.52;1.42;;;23.10;45.40;;;;;;5075544;28;20048;-58
2023/05/13 04:57:58;;;;;;;2.75;2.05;;;23.10;45.40;;;;;;5075994;28;20059;-58
2023/05/13 05:00:25;;;;;;;2.05;1.88;;;23.10;45.40;;;;;;5075358;28;20044;-58
2023/05/13 05:02:53;;;;;;;2.92;1.50;;;23.10;45.40;;;;;;5075508;28;20135;-60
2023/05/13 05:05:20;;;;;;;1.90;1.80;;;23.20;45.40;;;;;;5075348;28;20128;-65
2023/05/13 05:07:47;;;;;;;3.10;1.85;;;23.20;45.40;;;;;;5075555;28;20052;-58
2023/05/13 05:10:14;;;;;;;1.88;1.73;;;23.20;45.30;;;;;;5074143;28;20128;-63
2023/05/13 05:12:41;;;;;;;1.92;1.83;;;23.20;45.20;;;;;;5075738;28;20090;-62
2023/05/13 05:15:14;;;;;;;1.92;1.83;;;23.20;45.20;;;;;;5075502;28;20318;-59
2023/05/13 05:17:42;;;;;;;1.80;1.70;;;23.30;45.10;;;;;;5075516;28;20128;-58
2023/05/13 05:20:10;;;;;;;2.45;2.33;;;23.30;45.00;;;;;;5075072;28;20044;-57
2023/05/13 05:22:38;;;;;;;2.20;1.88;;;23.30;44.80;;;;;;5075258;28;20084;-57
2023/05/13 05:25:05;;;;;;;1.95;1.83;;;23.40;44.70;;;;;;5075038;28;20048;-57
2023/05/13 05:27:32;;;;;;;1.70;1.60;;;23.40;44.60;;;;;;5075501;28;20062;-58
2023/05/13 05:29:59;;;;;;;2.60;1.83;;;23.40;44.50;;;;;;5074978;28;20059;-59
2023/05/13 05:32:27;;;;;;;1.80;1.70;;;23.50;44.40;;;;;;5075107;28;20040;-59
2023/05/13 05:34:54;;;;;;;2.03;1.80;;;23.50;44.30;;;;;;5074892;28;20484;-58
2023/05/13 05:37:21;;;;;;;2.28;2.03;;;23.60;44.20;;;;;;5075098;28;20086;-57
2023/05/13 05:39:49;;;;;;;1.88;1.77;;;23.60;44.10;;;;;;5074707;28;20080;-58
2023/05/13 05:42:16;;;;;;;2.25;2.05;;;23.70;44.10;;;;;;5075142;28;20067;-58
2023/05/13 05:44:43;;;;;;;1.70;1.60;;;23.70;44.00;;;;;;5074605;28;20548;-58
2023/05/13 05:47:10;;;;;;;2.20;2.00;;;23.70;43.90;;;;;;5074618;28;20051;-58
2023/05/13 05:49:37;;;;;;;1.63;1.52;;;23.80;43.90;;;;;;5074496;28;20132;-57
2023/05/13 05:52:05;;;;;;;2.22;2.03;;;23.80;43.80;;;;;;5074917;28;20054;-58
2023/05/13 05:54:32;;;;;;;2.28;2.10;;;23.90;43.70;;;;;;5074314;28;20040;-58
2023/05/13 05:56:59;;;;;;;2.13;1.98;;;23.90;43.60;;;;;;5074523;28;20091;-59
2023/05/13 05:59:27;;;;;;;3.38;2.38;;;23.90;43.50;;;;;;5074627;28;20098;-58
2023/05/13 06:01:54;;;;;;;2.10;1.90;;;23.90;43.40;;;;;;5074493;28;20041;-58
2023/05/13 06:04:21;;;;;;;2.25;1.85;;;24.00;43.30;;;;;;5073217;28;20054;-58
2023/05/13 06:06:48;;;;;;;2.10;2.00;;;24.00;43.10;;;;;;5074270;28;20040;-58
2023/05/13 06:09:16;;;;;;;2.35;2.03;;;24.10;43.10;;;;;;5074614;28;20124;-58
2023/05/13 06:11:43;;;;;;;2.38;2.15;;;24.10;42.90;;;;;;5074218;28;20135;-58
2023/05/13 06:14:10;;;;;;;2.35;2.17;;;24.10;42.80;;;;;;5073505;28;20046;-57
2023/05/13 06:16:37;;;;;;;2.33;2.13;;;24.20;42.70;;;;;;5074332;28;20048;-58
2023/05/13 06:19:04;;;;;;;2.95;2.30;;;24.20;42.60;;;;;;5074583;28;20048;-58
2023/05/13 06:21:31;;;;;;;2.45;2.25;;;24.30;42.50;;;;;;5072923;28;20044;-58
2023/05/13 06:23:59;;;;;;;2.45;2.25;;;24.30;42.50;;;;;;5074339;28;20119;-58
2023/05/13 06:26:26;;;;;;;2.70;2.50;;;24.30;42.30;;;;;;5074236;28;20098;-58
2023/05/13 06:28:53;;;;;;;2.58;2.38;;;24.40;42.20;;;;;;5060485;28;20131;-58
2023/05/13 06:31:20;;;;;;;2.53;2.30;;;24.40;42.10;;;;;;5054270;28;20045;-58
2023/05/13 06:33:48;;;;;;;2.33;2.20;;;24.50;42.00;;;;;;5053850;28;20053;-57
2023/05/13 06:36:15;;;;;;;3.10;2.80;;;24.50;41.90;;;;;;5053725;28;20041;-58
2023/05/13 06:38:42;;;;;;;2.20;2.10;;;24.50;41.80;;;;;;5053615;28;20087;-58
2023/05/13 06:41:09;;;;;;;2.97;2.30;;;24.60;41.80;;;;;;5053844;28;20040;-58
2023/05/13 06:43:37;;;;;;;2.50;2.30;;;24.60;41.60;;;;;;5053691;28;20049;-58
2023/05/13 06:46:04;;;;;;;2.78;2.47;;;24.70;41.60;;;;;;5053652;28;20489;-58
2023/05/13 06:48:31;;;;;;;2.20;2.10;;;24.70;41.50;;;;;;5053569;28;20084;-58
2023/05/13 06:50:59;;;;;;;2.47;2.28;;;24.70;41.50;;;;;;5053488;28;20139;-58
2023/05/13 06:53:26;;;;;;;2.95;2.60;;;24.70;41.40;;;;;;5052519;28;20049;-58
2023/05/13 06:55:53;;;;;;;2.55;2.35;;;24.80;41.40;;;;;;5052436;28;20048;-58
2023/05/13 06:58:20;;;;;;;2.55;2.35;;;24.80;41.30;;;;;;5053303;28;20047;-58
2023/05/13 07:00:47;;;;;;;3.03;2.42;;;24.80;41.30;;;;;;5059170;28;20048;-58
2023/05/13 07:03:16;;;;;;;2.70;2.35;;;24.90;41.20;;;;;;5088198;28;20118;-58
2023/05/13 07:05:43;;;;;;;3.75;2.80;;;24.90;41.10;;;;;;5073247;28;20075;-58
2023/05/13 07:08:16;;;;;;;2.88;2.55;;;24.90;41.10;;;;;;5073988;28;20056;-59
2023/05/13 07:10:44;;;;;;;2.72;2.53;;;24.90;41.00;;;;;;5073407;28;20051;-57
2023/05/13 07:13:11;;;;;;;2.42;2.22;;;24.90;41.00;;;;;;5073339;28;20084;-58
2023/05/13 07:15:38;;;;;;;2.90;2.70;;;24.90;40.90;;;;;;5073113;28;20178;-58
2023/05/13 07:18:06;;;;;;;2.55;2.35;;;25.00;40.90;;;;;;5059681;28;20059;-58
2023/05/13 07:20:33;;;;;;;3.72;3.00;;;25.00;40.90;;;;;;5053182;28;20045;-58
2023/05/13 07:23:00;;;;;;;2.95;2.67;;;25.00;40.90;;;;;;5053062;28;20556;-58
2023/05/13 07:25:27;;;;;;;2.70;2.50;;;25.00;40.80;;;;;;5053256;28;20476;-58
2023/05/13 07:27:54;;;;;;;3.78;2.83;;;25.00;40.80;;;;;;5053126;28;20565;-57
2023/05/13 07:30:21;;;;;;;2.95;2.72;;;25.00;40.70;;;;;;5053040;28;20053;-58
2023/05/13 07:32:49;;;;;;;3.67;2.67;;;25.00;40.70;;;;;;5052910;28;20128;-58
2023/05/13 07:35:19;;;;;;;;;;;25.10;40.70;;;;;;5053306;28;20056;-58
2023/05/13 07:37:47;;;;;;;3.17;2.88;;;25.10;40.70;;;;;;5053041;28;19925;-58
2023/05/13 07:40:14;;;;;;;3.20;2.92;;;25.10;40.70;;;;;;5053079;28;20076;-58
2023/05/13 07:42:43;;;;;;;2.88;2.67;;;25.10;40.70;;;;;;5052015;28;20041;-57
2023/05/13 07:45:10;;;;;;;3.60;3.30;;;25.10;40.70;;;;;;5052788;28;20045;-58
2023/05/13 07:47:37;;;;;;;3.00;2.70;;;25.10;40.70;;;;;;5052801;28;20041;-58
2023/05/13 07:50:05;;;;;;;2.78;2.58;;;25.10;40.70;;;;;;5052810;28;20657;-58
2023/05/13 07:52:32;;;;;;;2.67;2.47;;;25.10;40.60;;;;;;5052741;28;20076;-58
2023/05/13 07:55:00;;;;;;;4.18;2.78;;;25.10;40.60;;;;;;5052689;28;20493;-58
2023/05/13 07:57:27;;;;;;;2.97;2.72;;;25.10;40.50;;;;;;5052845;28;20475;-58
2023/05/13 07:59:54;;;;;;;3.40;3.10;;;25.10;40.50;;;;;;5052675;28;20044;-58
2023/05/13 08:02:21;;;;;;;3.25;2.97;;;25.10;40.50;;;;;;5052598;28;20069;-58
2023/05/13 08:04:48;;;;;;;2.85;2.65;;;25.20;40.60;;;;;;5052647;28;20132;-58
2023/05/13 08:07:15;;;;;;;3.05;2.83;;;25.20;40.60;;;;;;5052926;28;20049;-57
2023/05/13 08:09:43;;;;;;;3.40;2.90;;;25.10;40.50;;;;;;5052970;28;20051;-58
2023/05/13 08:12:10;;;;;;;3.13;2.90;;;25.10;40.50;;;;;;5052616;28;20087;-58
2023/05/13 08:14:37;;;;;;;3.15;2.85;;;25.20;40.60;;;;;;5056013;28;20051;-58
2023/05/13 08:17:06;;;;;;;3.47;3.17;;;25.10;40.50;;;;;;5056391;28;20041;-58
2023/05/13 08:19:35;;;;;;;4.22;3.25;;;25.10;40.60;;;;;;5056314;28;20493;-58
2023/05/13 08:22:02;;;;;;;4.57;2.97;;;25.10;40.60;;;;;;5068850;28;20047;-58
2023/05/13 08:24:29;;;;;;;3.03;2.72;;;25.10;40.60;;;;;;5076192;28;20094;-58
2023/05/13 08:26:56;;;;;;;3.20;2.90;;;25.10;40.60;;;;;;5073258;28;20090;-58
2023/05/13 08:29:23;;;;;;;3.22;2.95;;;25.10;40.60;;;;;;5076120;28;20064;-59
2023/05/13 08:31:52;;;;;;;4.10;3.58;;;25.10;40.60;;;;;;5076555;28;20066;-58
2023/05/13 08:34:20;;;;;;;2.88;2.67;;;25.10;40.60;;;;;;5075984;28;20140;-58
2023/05/13 08:36:47;;;;;;;3.25;3.05;;;25.10;40.60;;;;;;5075972;28;20127;-58
2023/05/13 08:39:14;;;;;;;3.90;3.20;;;25.20;40.60;;;;;;5074847;28;20045;-58
2023/05/13 08:41:43;;;;;;;3.75;3.03;;;25.20;41.20;;;;;;5076054;28;20136;-58
2023/05/13 08:44:12;;;;;;;3.50;3.07;;;25.20;40.60;;;;;;5076022;28;20120;-58
2023/05/13 08:46:44;;;;;;;4.75;3.33;;;25.20;40.50;;;;;;5075884;28;20052;-58
2023/05/13 08:49:11;;;;;;;4.95;3.17;;;25.20;40.50;;;;;;5075949;28;20542;-57
2023/05/13 08:51:39;;;;;;;3.40;3.00;;;25.30;40.50;;;;;;5075680;28;20044;-57
2023/05/13 08:54:09;;;;;;;3.13;2.90;;;25.20;40.40;;;;;;5075682;28;20129;-58
2023/05/13 08:56:36;;;;;;;4.68;3.58;;;25.30;40.50;;;;;;5075660;28;20540;-58
2023/05/13 08:59:04;;;;;;;4.20;3.17;;;25.30;40.50;;;;;;5075536;28;20053;-57
2023/05/13 09:01:31;;;;;;;3.47;3.17;;;25.30;40.50;;;;;;5075468;28;20048;-58
2023/05/13 09:04:03;;;;;;;3.60;3.30;;;25.30;40.50;;;;;;5075291;28;20158;-58
2023/05/13 09:06:31;;;;;;;3.28;2.97;;;25.30;40.40;;;;;;5075857;28;20128;-58
2023/05/13 09:08:58;;;;;;;4.13;3.78;;;25.40;40.50;;;;;;5075794;28;20127;-57
2023/05/13 09:11:25;;;;;;;3.78;3.40;;;25.40;40.40;;;;;;5074462;28;20055;-58
2023/05/13 09:14:01;;;;;;;3.60;3.10;;;25.40;40.40;;;;;;5075400;28;20053;-58
2023/05/13 09:16:29;;;;;;;3.63;3.33;;;25.40;40.30;;;;;;5075247;28;20501;-58
2023/05/13 09:19:02;;;;;;;3.55;3.25;;;25.40;40.30;;;;;;5075509;28;20044;-58
2023/05/13 09:21:32;;;;;;;3.78;3.47;;;25.40;40.20;;;;;;5074355;28;20084;-58
2023/05/13 09:24:16;;;;;;;3.58;3.28;;;25.50;40.80;;;;;;5074814;28;20135;-58
2023/05/13 09:26:44;;;;;;;3.90;3.50;;;25.40;40.20;;;;;;5074132;28;20459;-58
2023/05/13 09:29:20;;;;;;;3.55;3.25;;;25.40;40.20;;;;;;5075454;28;20399;-57
2023/05/13 09:31:51;;;;;;;3.25;2.95;;;25.50;40.30;;;;;;5072022;28;20052;-57
2023/05/13 09:34:33;;;;;;;5.28;3.35;;;25.40;40.30;;;;;;5073463;28;20048;-58
2023/05/13 09:37:05;;;;;;;3.67;3.38;;;25.40;40.30;;;;;;5075277;28;20098;-58
2023/05/13 09:39:38;;;;;;;3.45;3.15;;;25.40;40.30;;;;;;5074766;28;20044;-58
2023/05/13 09:42:13;;;;;;;4.80;3.50;;;25.40;40.40;;;;;;5074736;28;20051;-58
2023/05/13 09:44:42;;;;;;;3.20;3.00;;;25.40;40.50;;;;;;5074729;28;20131;-58
2023/05/13 09:47:13;;;;;;;4.00;3.10;;;25.40;40.50;;;;;;5073722;28;20511;-58
2023/05/13 09:49:42;;;;;;;3.80;3.42;;;25.40;40.50;;;;;;5074687;28;20045;-58
2023/05/13 09:52:10;;;;;;;4.70;3.00;;;25.40;40.50;;;;;;5074529;28;20499;-58
2023/05/13 09:54:38;;;;;;;4.03;3.72;;;25.40;40.60;;;;;;5074606;28;20056;-58
2023/05/13 09:57:05;;;;;;;3.78;3.47;;;25.40;40.50;;;;;;5074412;28;20048;-58
2023/05/13 09:59:33;;;;;;;3.28;3.00;;;25.40;40.50;;;;;;5074708;28;20098;-58
2023/05/13 10:02:05;;;;;;;3.60;3.30;;;25.40;40.50;;;;;;5074344;28;20040;-58
2023/05/13 10:04:33;;;;;;;3.60;3.30;;;25.50;40.50;;;;;;5074542;28;20049;-58
2023/05/13 10:07:03;;;;;;;3.13;2.92;;;25.50;40.40;;;;;;5074264;28;20044;-58
2023/05/13 10:09:37;;;;;;;8.98;3.28;;;25.50;40.30;;;;;;5074106;28;20064;-58
2023/05/13 10:12:07;;;;;;;3.33;3.03;;;25.60;40.40;;;;;;5073875;28;20132;-57
2023/05/13 10:14:36;;;;;;;3.50;3.17;;;25.60;40.30;;;;;;5074100;28;20135;-58
2023/05/13 10:17:05;;;;;;;3.80;3.50;;;25.60;40.30;;;;;;5074210;28;20040;-58
2023/05/13 10:19:33;;;;;;;3.35;3.05;;;25.60;40.20;;;;;;5074281;28;20484;-58
2023/05/13 10:22:01;;;;;;;3.92;3.63;;;25.70;40.30;;;;;;5074025;28;20058;-58
2023/05/13 10:24:28;;;;;;;3.60;3.30;;;25.70;40.20;;;;;;5073503;28;20523;-58
2023/05/13 10:26:57;;;;;;;3.97;3.33;;;25.70;40.10;;;;;;5074447;28;20072;-58
2023/05/13 10:29:27;;;;;;;3.75;3.45;;;25.80;40.10;;;;;;5072865;28;20459;-57
2023/05/13 10:31:55;;;;;;;3.83;3.22;;;25.80;40.00;;;;;;5074125;28;20108;-58
2023/05/13 10:34:23;;;;;;;3.45;3.15;;;25.80;39.90;;;;;;5073754;28;20053;-58
2023/05/13 10:37:30;;;;;;;3.78;3.47;;;25.90;39.90;;;;;;5073648;28;20095;-58
2023/05/13 10:40:28;;;;;;;3.55;3.25;;;26.00;39.90;;;;;;5073936;28;20053;-57
2023/05/13 10:43:19;;;;;;;3.58;3.28;;;26.00;40.40;;;;;;5073601;28;20087;-58
2023/05/13 10:45:50;;;;;;;3.42;3.22;;;26.00;39.80;;;;;;5073882;28;20148;-59
2023/05/13 10:48:18;;;;;;;4.10;3.80;;;26.00;39.80;;;;;;5073564;28;20481;-58
2023/05/13 10:50:54;;;;;;;3.53;3.33;;;25.90;39.80;;;;;;5072210;28;20048;-58
2023/05/13 10:53:30;;;;;;;3.50;3.20;;;26.00;39.90;;;;;;5072225;28;20481;-58
2023/05/13 10:55:58;;;;;;;3.20;3.00;;;26.00;39.90;;;;;;5073813;28;20049;-58
2023/05/13 10:58:31;;;;;;;3.42;3.15;;;25.90;39.50;;;;;;5073448;28;20098;-58
2023/05/13 11:01:27;;;;;;;3.83;3.53;;;25.90;39.90;;;;;;5073133;28;20094;-58
2023/05/13 11:03:58;;;;;;;3.45;3.25;;;25.90;39.90;;;;;;5073658;28;20123;-58
2023/05/13 11:06:35;;;;;;;4.15;3.85;;;25.90;40.00;;;;;;5073212;28;20048;-57
2023/05/13 11:09:12;;;;;;;3.28;3.08;;;25.90;40.00;;;;;;5073654;28;20044;-58
2023/05/13 11:11:40;;;;;;;3.53;3.22;;;25.90;40.00;;;;;;5073194;28;20084;-57
2023/05/13 11:14:19;;;;;;;3.67;3.42;;;25.90;40.10;;;;;;5073211;28;20127;-58
2023/05/13 11:17:08;;;;;;;3.47;3.28;;;25.90;40.10;;;;;;5073324;28;20088;-57
2023/05/13 11:19:37;;;;;;;3.53;3.33;;;25.80;40.10;;;;;;5072973;28;20049;-57
2023/05/13 11:22:12;;;;;;;3.27;2.97;;;25.80;40.20;;;;;;5073022;28;20481;-58
2023/05/13 11:24:39;;;;;;;3.90;3.60;;;25.80;40.20;;;;;;5072986;28;20096;-58
2023/05/13 11:27:18;;;;;;;4.20;3.90;;;25.80;40.20;;;;;;5073060;28;20080;-58
2023/05/13 11:29:54;;;;;;;3.85;3.55;;;25.80;40.20;;;;;;5073033;28;20052;-57
2023/05/13 11:32:52;;;;;;;3.90;3.63;;;25.90;40.30;;;;;;5069668;28;20045;-58
2023/05/13 11:35:21;;;;;;;5.68;4.20;;;25.90;40.30;;;;;;5052877;28;20075;-57
2023/05/13 11:37:49;;;;;;;3.83;3.53;;;25.90;40.30;;;;;;5052980;28;20049;-58
2023/05/13 11:40:22;;;;;;;4.45;4.03;;;25.90;40.20;;;;;;5052854;28;20055;-58
2023/05/13 11:42:49;;;;;;;3.80;3.50;;;26.00;40.30;;;;;;5053219;28;20053;-57
2023/05/13 11:45:19;;;;;;;3.97;3.67;;;25.90;40.20;;;;;;5053361;28;20049;-57
2023/05/13 11:47:47;;;;;;;4.60;4.22;;;25.90;40.30;;;;;;5053792;28;20056;-58
2023/05/13 11:50:22;;;;;;;4.30;3.90;;;25.90;40.40;;;;;;5056831;28;20049;-58
2023/05/13 11:52:57;;;;;;;3.67;3.45;;;25.80;40.50;;;;;;5057042;28;20539;-57
2023/05/13 11:55:26;;;;;;;3.92;3.63;;;25.80;40.60;;;;;;5056648;28;20052;-58
2023/05/13 11:57:55;;;;;;;4.30;4.00;;;25.70;40.70;;;;;;5056915;28;20489;-57
2023/05/13 12:00:27;;;;;;;4.30;3.90;;;25.70;40.80;;;;;;5056596;28;20059;-58
2023/05/13 12:02:54;;;;;;;4.30;3.90;;;25.60;40.90;;;;;;5056552;28;20416;-58
2023/05/13 12:05:22;;;;;;;3.83;3.50;;;25.60;41.00;;;;;;5056614;28;20049;-58
2023/05/13 12:07:51;;;;;;;4.30;4.00;;;25.50;41.00;;;;;;5056703;28;20406;-57
2023/05/13 12:10:18;;;;;;;4.25;3.95;;;25.50;41.20;;;;;;5056825;28;20163;-57
2023/05/13 12:12:45;;;;;;;4.88;4.47;;;25.40;41.20;;;;;;5055741;28;20052;-58
2023/05/13 12:15:17;;;;;;;4.15;3.85;;;25.40;41.30;;;;;;5056472;28;20107;-57
2023/05/13 12:17:45;;;;;;;4.95;4.55;;;25.40;41.40;;;;;;5056517;28;20041;-57
2023/05/13 12:20:23;;;;;;;4.07;3.78;;;25.40;41.50;;;;;;5056607;28;20091;-57
2023/05/13 12:22:53;;;;;;;4.00;3.70;;;25.40;41.50;;;;;;5056243;28;20053;-59
2023/05/13 12:25:41;;;;;;;4.15;3.85;;;25.40;41.60;;;;;;5038955;28;20067;-58
2023/05/13 12:28:12;;;;;;;4.55;4.20;;;25.40;41.60;;;;;;5056199;28;20140;-59
2023/05/13 12:30:40;;;;;;;5.20;4.70;;;25.40;41.60;;;;;;5056480;28;20451;-58
2023/05/13 12:33:19;;;;;;;4.47;4.13;;;25.40;41.60;;;;;;5056135;28;20580;-58
2023/05/13 12:35:50;;;;;;;4.40;4.10;;;25.40;41.60;;;;;;5054941;28;20139;-58
2023/05/13 12:38:23;;;;;;;4.20;3.90;;;25.50;41.60;;;;;;5055925;28;20079;-58
2023/05/13 12:40:52;;;;;;;5.03;4.60;;;25.50;41.60;;;;;;5056009;28;20138;-58
2023/05/13 12:43:19;;;;;;;4.68;4.28;;;25.50;41.60;;;;;;5056336;28;20041;-58
2023/05/13 12:45:52;;;;;;;4.40;4.10;;;25.50;41.70;;;;;;5076215;28;20055;-58
2023/05/13 12:48:23;;;;;;;4.80;4.50;;;25.50;41.70;;;;;;5075872;28;20477;-58
2023/05/13 12:50:51;;;;;;;4.65;4.32;;;25.50;41.80;;;;;;5076057;28;20467;-59
2023/05/13 12:53:18;;;;;;;4.80;4.40;;;25.50;41.80;;;;;;5075753;28;20059;-59
2023/05/13 12:55:45;;;;;;;4.57;4.28;;;25.50;41.80;;;;;;5075382;28;20045;-59
2023/05/13 12:58:12;;;;;;;4.40;4.10;;;25.60;41.80;;;;;;5076075;28;20086;-58